Terminal Aerodrome Forecast
Issued by NWS

Current Version | Previous Version | Text Only | Print | Product List | Glossary On
Versions: 1 2 3 4 5 6 7 8 9 10 11 12 13 14 15 16
000
FTUS44 KLIX 181700
TAFGPT
TAF
KGPT 181738Z 1818/1918 02014G20KT P6SM BKN019 OVC025
     FM181900 02013G19KT P6SM OVC021
     FM182200 01012G18KT P6SM SCT030 BKN050
     FM190500 36008KT P6SM FEW250=

USA.gov is the U.S. government's official web portal to all federal, state and local government web resources and services.